Latest Weather Observations for Casterton

IDV60801

Issued at 5:02 pm EDT Thursday 28 January 2021 (issued every 10 minutes, with the page automatically refreshed every 10 minutes)

About weather observations | Map of weather stations | Latest weather observations for VIC | Other Formats
Station Details ID: 090182 Name: CASTERTON Lat: -37.58 Lon: 141.33 Height: 130.6 m
Data from the previous 72 hours. | See also: Recent months at Casterton
Date/Time
EDT
Temp
°C
App
Temp
°C
Dew
Point
°C
Rel
Hum
%
Delta-T
°C
Wind Press
QNH
hPa
Press
MSL
hPa
Rain since
9am
mm
Dir  Spd
km/h
Gust
km/h
Spd
kts
Gust
kts
28/05:00pm 28.5 26.2 14.0 41 8.7 NE 19 26 10 14 1009.8 1009.4 0.0
28/04:30pm 29.2 27.8 13.4 38 9.4 ENE 13 20 7 11 1009.7 1009.3 0.0
28/04:00pm 29.8 27.3 12.3 34 10.3 E 17 26 9 14 1009.8 1009.4 0.0
28/03:30pm 30.4 28.8 12.8 34 10.5 NNE 13 24 7 13 1010.1 1009.7 0.0
28/03:00pm 30.0 28.4 12.9 35 10.2 NNE 13 20 7 11 1010.8 1010.4 0.0
28/02:30pm 29.2 26.5 11.7 34 10.2 NNE 17 26 9 14 1011.3 1010.9 0.0
28/02:00pm 29.4 26.6 13.2 37 9.7 ENE 20 33 11 18 1011.7 1011.3 0.0
28/01:30pm 27.9 25.4 14.2 43 8.3 SE 20 30 11 16 1012.0 1011.5 0.0
28/01:00pm 27.3 25.2 14.7 46 7.6 ESE 19 28 10 15 1012.5 1012.0 0.0
28/12:30pm 26.2 24.2 15.0 50 6.8 ESE 19 28 10 15 1012.7 1012.2 0.0
28/12:00pm 25.6 23.6 15.0 52 6.4 E 19 26 10 14 1012.8 1012.3 0.0
28/11:30am 23.4 21.1 14.7 58 5.2 E 20 30 11 16 1013.0 1012.5 0.0
28/11:00am 23.1 21.1 15.4 62 4.6 E 20 28 11 15 1013.4 1013.0 0.0
28/10:30am 21.3 19.1 14.9 67 3.8 ESE 20 28 11 15 1013.9 1013.5 0.0
28/10:00am 20.1 17.9 14.9 72 3.1 E 20 26 11 14 1014.4 1014.0 0.0
28/09:30am 18.7 16.2 14.2 75 2.6 E 20 30 11 16 1014.6 1014.2 0.0
28/09:00am 17.6 15.1 14.1 80 2.0 E 20 32 11 17 1014.8 1014.4 0.0
28/08:30am 16.8 14.4 13.7 82 1.8 E 19 28 10 15 1014.4 1014.0 0.0
28/08:00am 16.5 13.5 13.6 83 1.6 E 22 30 12 16 1014.0 1013.6 0.0
28/07:30am 15.9 12.7 13.2 84 1.5 ESE 22 33 12 18 1013.8 1013.4 0.0
28/07:00am 15.6 13.0 13.1 85 1.4 ESE 19 26 10 14 1013.5 1013.1 0.0
28/06:30am 15.7 12.9 13.2 85 1.4 ESE 20 28 11 15 1013.4 1013.0 0.0
28/06:00am 15.7 12.1 13.2 85 1.4 ESE 24 32 13 17 1013.2 1012.8 0.0
28/05:30am 15.7 12.1 13.2 85 1.4 ESE 24 35 13 19 1012.9 1012.4 0.0
28/05:00am 15.6 12.1 13.3 86 1.3 ESE 24 33 13 18 1013.1 1012.7 0.0
28/04:30am 15.6 12.8 13.3 86 1.3 ESE 20 30 11 16 1012.9 1012.4 0.0
28/04:00am 15.4 12.9 13.4 88 1.1 SE 19 30 10 16 1013.2 1012.8 0.0
28/03:30am 15.4 12.2 13.2 87 1.2 ESE 22 39 12 21 1013.6 1013.2 0.0
28/03:00am 15.4 12.3 13.4 88 1.1 ESE 22 32 12 17 1013.7 1013.3 0.0
28/02:30am 15.2 12.7 13.4 89 1.0 ESE 19 26 10 14 1014.0 1013.6 0.0
28/02:00am 15.2 13.4 13.4 89 1.0 ESE 15 26 8 14 1014.3 1013.9 0.0
28/01:30am 15.3 13.5 13.2 87 1.2 ESE 15 26 8 14 1014.5 1014.1 0.0
28/01:00am 15.4 12.6 13.1 86 1.3 ESE 20 32 11 17 1014.4 1014.0 0.0
28/12:30am 15.6 10.9 13.1 85 1.4 ESE 30 41 16 22 1014.3 1013.9 0.0
28/12:00am 16.0 13.3 12.9 82 1.7 ESE 19 28 10 15 1014.7 1014.3 0.0
 
Date/Time
EDT
Temp
°C
App
Temp
°C
Dew
Point
°C
Rel
Hum
%
Delta-T
°C
Wind Press
QNH
hPa
Press
MSL
hPa
Rain since
9am
mm
Dir  Spd
km/h
Gust
km/h
Spd
kts
Gust
kts
27/11:30pm 15.4 13.0 12.5 83 1.6 ESE 17 26 9 14 1014.7 1014.3 0.0
27/11:00pm 15.3 13.2 12.4 83 1.6 SE 15 22 8 12 1015.0 1014.6 0.0
27/10:30pm 15.0 13.9 12.0 82 1.6 SSE 9 13 5 7 1015.2 1014.8 0.0
27/10:00pm 14.9 13.2 11.3 79 1.9 SSE 11 15 6 8 1015.1 1014.7 0.0
27/09:30pm 15.1 13.5 10.3 73 2.5 SE 9 15 5 8 1015.1 1014.7 0.0
27/09:00pm 15.3 13.6 9.7 69 2.9 SE 9 13 5 7 1014.7 1014.3 0.0
27/08:30pm 16.6 12.8 9.1 61 3.9 SSE 19 26 10 14 1014.6 1014.2 0.0
27/08:00pm 17.9 14.0 9.5 58 4.4 SSE 20 28 11 15 1014.6 1014.2 0.0
27/07:30pm 18.6 14.3 9.4 55 4.9 SE 22 35 12 19 1013.9 1013.5 0.0
27/07:00pm 19.4 14.6 9.0 51 5.5 SE 24 39 13 21 1013.4 1013.0 0.0
27/06:30pm 19.8 14.8 9.4 51 5.5 SE 26 35 14 19 1013.3 1012.9 0.0
27/06:00pm 20.8 16.0 10.3 51 5.7 SE 26 37 14 20 1013.4 1013.0 0.0
27/05:30pm 20.8 15.5 9.7 49 6.0 SE 28 41 15 22 1013.5 1013.1 0.0
27/05:00pm 21.0 14.8 9.3 47 6.3 SE 32 41 17 22 1013.6 1013.2 0.0
27/04:30pm 21.1 15.6 9.0 46 6.5 SE 28 41 15 22 1013.7 1013.3 0.0
27/04:04pm 21.3 15.7 8.9 45 6.6 SE 28 46 15 25 1013.9 1013.5 0.0
27/04:00pm 21.5 15.9 8.7 44 6.8 SE 28 41 15 22 1014.0 1013.6 0.0
27/03:30pm 21.3 15.6 8.2 43 6.9 SE 28 37 15 20 1014.5 1014.1 0.0
27/03:00pm 21.2 15.4 8.1 43 6.9 SE 28 41 15 22 1014.9 1014.5 0.0
27/02:30pm 21.0 14.9 8.3 44 6.7 ESE 30 43 16 23 1015.0 1014.6 0.0
27/02:00pm 20.7 15.5 9.0 47 6.2 SE 26 41 14 22 1015.0 1014.6 0.0
27/01:30pm 20.3 13.8 8.0 45 6.4 SE 32 46 17 25 1015.0 1014.6 0.0
27/01:00pm 19.5 12.9 7.6 46 6.1 ESE 32 44 17 24 1015.4 1015.0 0.0
27/12:30pm 18.7 12.6 8.1 50 5.5 SE 30 44 16 24 1015.5 1015.1 0.0
27/12:18pm 18.5 12.2 7.3 48 5.7 ESE 30 52 16 28 1015.5 1015.1 0.0
27/12:00pm 17.9 10.6 7.0 49 5.5 ESE 35 50 19 27 1015.7 1015.3 0.0
27/11:30am 17.9 11.2 7.3 50 5.4 ESE 32 44 17 24 1015.9 1015.5 0.0
27/11:00am 16.8 9.9 7.2 53 4.8 ESE 33 48 18 26 1015.9 1015.5 0.0
27/10:37am 16.6 10.1 6.7 52 4.9 ESE 30 52 16 28 1016.0 1015.6 0.0
27/10:30am 16.8 11.2 7.2 53 4.8 SE 26 39 14 21 1016.1 1015.7 0.0
27/10:00am 15.7 9.2 6.7 55 4.4 ESE 30 44 16 24 1016.2 1015.8 0.0
27/09:30am 14.7 7.9 6.8 59 3.9 ESE 32 48 17 26 1016.0 1015.6 0.0
27/09:00am 14.2 7.4 6.8 61 3.6 SE 32 50 17 27 1015.6 1015.2 0.0
27/08:57am 14.0 7.5 6.6 61 3.6 SE 30 50 16 27 1015.6 1015.2 0.0
27/08:30am 13.3 8.3 6.4 63 3.3 SE 22 32 12 17 1015.2 1014.8 0.0
27/08:00am 12.3 7.9 6.4 67 2.8 SE 19 24 10 13 1015.0 1014.6 0.0
27/07:30am 11.4 7.3 6.1 70 2.5 SE 17 26 9 14 1015.0 1014.6 0.0
27/07:00am 9.7 6.6 5.7 76 1.8 SSE 11 15 6 8 1015.0 1014.6 0.0
27/06:30am 9.7 6.6 5.7 76 1.8 SSE 11 17 6 9 1014.6 1014.2 0.0
27/06:00am 9.6 6.6 5.8 77 1.8 SE 11 15 6 8 1014.3 1013.9 0.0
27/05:30am 8.8 6.1 5.4 79 1.5 SE 9 13 5 7 1014.0 1013.6 0.0
27/05:00am 9.9 6.8 5.7 75 1.9 SE 11 15 6 8 1014.0 1013.6 0.0
27/04:30am 10.1 7.1 6.1 76 1.9 SE 11 19 6 10 1013.9 1013.5 0.0
27/04:00am 9.9 6.8 5.5 74 2.0 SE 11 17 6 9 1013.9 1013.5 0.0
27/03:30am 10.3 7.1 5.3 71 2.3 SE 11 15 6 8 1014.0 1013.6 0.0
27/03:00am 11.0 7.1 5.3 68 2.6 SE 15 20 8 11 1013.6 1013.2 0.0
27/02:30am 11.0 7.1 5.5 69 2.5 SE 15 22 8 12 1013.5 1013.1 0.0
27/02:00am 11.7 6.9 5.8 67 2.8 SE 20 35 11 19 1013.5 1013.1 0.0
27/01:30am 12.8 7.4 6.4 65 3.1 SE 24 35 13 19 1013.2 1012.8 0.0
27/01:00am 13.4 8.1 7.0 65 3.1 SE 24 37 13 20 1013.2 1012.8 0.0
27/12:30am 13.5 10.4 9.0 74 2.3 SE 15 20 8 11 1013.3 1012.9 0.0
27/12:00am 13.4 10.8 9.3 76 2.1 SSE 13 20 7 11 1013.3 1012.9 0.0
 
Date/Time
EDT
Temp
°C
App
Temp
°C
Dew
Point
°C
Rel
Hum
%
Delta-T
°C
Wind Press
QNH
hPa
Press
MSL
hPa
Rain since
9am
mm
Dir  Spd
km/h
Gust
km/h
Spd
kts
Gust
kts
26/11:30pm 13.3 10.7 9.4 77 2.0 SSE 13 24 7 13 1013.1 1012.7 0.0
26/11:00pm 12.9 10.7 9.2 78 1.9 SSE 11 19 6 10 1013.1 1012.7 0.0
26/10:30pm 12.7 9.7 9.2 79 1.8 SSE 15 22 8 12 1012.7 1012.2 0.0
26/10:00pm 12.9 9.5 9.2 78 1.9 SSE 17 26 9 14 1012.1 1011.6 0.0
26/09:30pm 13.5 9.6 9.4 76 2.1 SSE 20 32 11 17 1011.6 1011.2 0.0
26/09:00pm 14.0 10.3 10.0 77 2.1 SE 20 30 11 16 1011.3 1010.9 0.0
26/08:30pm 14.9 11.4 10.3 74 2.4 SSE 19 28 10 15 1010.6 1010.2 0.0
26/08:00pm 16.0 11.3 10.7 71 2.8 SSE 26 39 14 21 1009.9 1009.5 0.0
26/07:30pm 16.8 12.5 10.6 67 3.3 SSE 24 32 13 17 1009.4 1009.0 0.0
26/07:00pm 17.6 12.9 10.7 64 3.7 SSE 26 35 14 19 1008.9 1008.5 0.0
26/06:30pm 17.5 14.1 11.1 66 3.5 SSE 20 32 11 17 1008.6 1008.2 0.0
26/06:00pm 18.8 13.8 11.1 61 4.2 SSE 28 41 15 22 1008.2 1007.8 0.0
26/05:30pm 18.6 14.5 11.4 63 4.0 SSE 24 35 13 19 1007.9 1007.5 0.0
26/05:00pm 20.3 16.2 11.5 57 4.9 S 24 35 13 19 1007.5 1007.1 0.0
26/04:30pm 20.5 16.1 11.7 57 4.9 S 26 39 14 21 1007.2 1006.8 0.0
26/04:00pm 20.7 17.2 10.8 53 5.5 S 20 35 11 19 1006.9 1006.5 0.0
26/03:30pm 20.8 16.9 10.9 53 5.5 S 22 32 12 17 1007.0 1006.6 0.0
26/03:00pm 20.9 17.8 11.5 55 5.3 S 19 30 10 16 1006.8 1006.4 0.0
26/02:30pm 19.4 15.7 10.1 55 5.0 SSW 20 32 11 17 1006.9 1006.5 0.0
26/02:00pm 20.7 16.3 10.5 52 5.6 SSW 24 35 13 19 1006.8 1006.4 0.0
26/01:30pm 19.7 15.8 10.7 56 4.9 SSW 22 32 12 17 1006.8 1006.4 0.0
26/01:00pm 19.5 15.4 11.5 60 4.4 SSE 24 35 13 19 1006.4 1006.0 0.0
26/12:30pm 19.0 14.9 12.7 67 3.6 SSW 26 37 14 20 1006.3 1005.8 0.0
26/12:00pm 19.7 17.2 12.2 62 4.2 SSW 17 28 9 15 1006.3 1005.8 0.0
26/11:30am 18.5 15.3 12.0 66 3.6 SSW 20 32 11 17 1006.3 1005.8 0.0
26/11:00am 18.6 16.1 13.5 72 2.9 SSW 19 26 10 14 1005.4 1004.9 0.0
26/10:30am 19.0 16.7 15.7 81 2.0 S 22 32 12 17 1005.6 1005.1 0.0
26/10:00am 17.7 15.8 15.3 86 1.4 SSW 19 24 10 13 1005.5 1005.0 0.0
26/09:30am 16.2 14.3 15.1 93 0.6 SSW 19 28 10 15 1005.1 1004.6 0.0
26/09:00am 16.3 14.1 14.5 89 1.0 S 19 26 10 14 1004.5 1004.0 11.0
26/08:30am 16.4 16.2 15.6 95 0.5 SSW 11 15 6 8 1004.0 1003.5 11.0
26/08:00am 15.5 14.4 15.3 99 0.1 SSW 15 20 8 11 1003.5 1003.1 11.0
26/07:30am 15.3 14.1 15.1 99 0.1 SSW 15 24 8 13 1003.1 1002.7 11.0
26/07:00am 15.3 14.1 15.1 99 0.1 SSW 15 22 8 12 1002.7 1002.3 11.0
26/06:30am 15.4 14.6 15.2 99 0.1 SW 13 20 7 11 1002.5 1002.1 11.0
26/06:00am 15.5 14.8 15.3 99 0.1 SSW 13 20 7 11 1001.9 1001.5 11.0
26/05:30am 15.6 14.5 15.4 99 0.1 SSW 15 22 8 12 1001.5 1001.1 11.0
26/05:00am 15.6 13.8 15.4 99 0.1 SSW 19 26 10 14 1001.1 1000.7 11.0
26/04:30am 15.7 14.3 15.5 99 0.1 SSW 17 26 9 14 1000.7 1000.3 11.0
26/04:00am 15.9 14.2 15.7 99 0.1 SSW 19 30 10 16 1000.7 1000.3 11.0
26/03:30am 16.5 14.8 16.3 99 0.1 SSW 20 28 11 15 1000.5 1000.1 11.0
26/03:00am 17.1 15.3 16.9 99 0.1 SW 22 33 12 18 1000.4 1000.0 11.0
26/02:30am 17.6 17.7 17.4 99 0.1 SW 13 17 7 9 1000.3 999.9 10.8
26/02:00am 17.5 17.5 17.3 99 0.1 SW 13 17 7 9 1000.3 999.9 10.6
26/01:30am 17.5 17.9 17.3 99 0.1 WSW 11 17 6 9 1000.2 999.8 10.4
26/01:00am 17.6 17.3 17.4 99 0.1 WSW 15 20 8 11 1000.2 999.8 10.4
26/12:30am 17.8 18.7 17.6 99 0.1 W 9 11 5 6 1000.1 999.7 10.4
26/12:00am 17.7 19.5 17.5 99 0.1 WSW 4 6 2 3 999.9 999.5 10.4
 
Date/Time
EDT
Temp
°C
App
Temp
°C
Dew
Point
°C
Rel
Hum
%
Delta-T
°C
Wind Press
QNH
hPa
Press
MSL
hPa
Rain since
9am
mm
Dir  Spd
km/h
Gust
km/h
Spd
kts
Gust
kts
25/11:30pm 17.6 19.0 17.4 99 0.1 SSW 6 9 3 5 999.8 999.4 10.4
25/11:00pm 17.7 19.0 17.5 99 0.1 SW 7 11 4 6 1000.1 999.7 10.4
25/10:30pm 17.7 18.2 17.5 99 0.1 S 11 13 6 7 999.7 999.2 10.4
25/10:00pm 17.8 18.4 17.6 99 0.1 SSW 11 13 6 7 999.8 999.4 10.4
25/09:30pm 17.8 18.7 17.6 99 0.1 SSW 9 15 5 8 999.7 999.2 10.4
25/09:00pm 17.8 18.4 17.6 99 0.1 SSW 11 17 6 9 999.4 998.9 9.6
25/08:30pm 18.5 18.6 18.3 99 0.1 SW 15 19 8 10 998.9 998.4 8.0
25/08:00pm 19.0 19.7 18.8 99 0.1 E 13 19 7 10 998.3 997.8 8.0
25/07:30pm 18.9 19.5 18.7 99 0.1 ESE 13 19 7 10 998.4 997.9 8.0
25/07:00pm 18.6 18.7 18.4 99 0.1 ESE 15 24 8 13 998.1 997.6 7.8
25/06:30pm 18.5 16.9 18.3 99 0.1 ENE 24 33 13 18 997.8 997.3 7.0
25/06:00pm 19.2 20.4 19.0 99 0.1 ESE 11 24 6 13 999.5 999.0 4.4
25/05:30pm 19.4 20.1 18.9 97 0.3 SW 13 20 7 11 1000.6 1000.2 1.8

Other formats

Comma delimited format used in spreadsheet applications
http://www.bom.gov.au/fwo/IDV60801/IDV60801.95825.axf

JavaScript Object Notation format (JSON) in row-major order
http://www.bom.gov.au/fwo/IDV60801/IDV60801.95825.json

Data quality

Most of these data are generated automatically and are frequently updated. Quality checks on data are not normally performed. It is possible for incorrect values to appear. Refer to information at About Latest Weather Observations and please check the disclaimer before using these data.